sensor_id;sensor_type;location;lat;lon;timestamp;P1;durP1;ratioP1;P2;durP2;ratioP2
34433;SDS011;34290;48.562;13.384;2023-02-26T00:00:00;7.27;;;4.40;;
34433;SDS011;34290;48.562;13.384;2023-02-26T00:02:28;7.73;;;4.47;;
34433;SDS011;34290;48.562;13.384;2023-02-26T00:04:55;6.90;;;3.97;;
34433;SDS011;34290;48.562;13.384;2023-02-26T00:07:22;7.43;;;4.43;;
34433;SDS011;34290;48.562;13.384;2023-02-26T00:09:53;6.80;;;4.00;;
34433;SDS011;34290;48.562;13.384;2023-02-26T00:12:22;8.00;;;4.07;;
34433;SDS011;34290;48.562;13.384;2023-02-26T00:14:49;9.17;;;4.50;;
34433;SDS011;34290;48.562;13.384;2023-02-26T00:17:23;6.20;;;3.77;;
34433;SDS011;34290;48.562;13.384;2023-02-26T00:20:06;7.10;;;3.90;;
34433;SDS011;34290;48.562;13.384;2023-02-26T00:22:34;7.37;;;4.30;;
34433;SDS011;34290;48.562;13.384;2023-02-26T00:25:01;8.60;;;4.50;;
34433;SDS011;34290;48.562;13.384;2023-02-26T00:27:30;6.40;;;3.90;;
34433;SDS011;34290;48.562;13.384;2023-02-26T00:29:57;6.60;;;4.13;;
34433;SDS011;34290;48.562;13.384;2023-02-26T00:32:24;6.87;;;4.23;;
34433;SDS011;34290;48.562;13.384;2023-02-26T00:34:52;10.33;;;4.43;;
34433;SDS011;34290;48.562;13.384;2023-02-26T00:37:23;9.90;;;5.03;;
34433;SDS011;34290;48.562;13.384;2023-02-26T00:39:58;8.80;;;4.30;;
34433;SDS011;34290;48.562;13.384;2023-02-26T00:42:35;8.07;;;4.30;;
34433;SDS011;34290;48.562;13.384;2023-02-26T00:45:03;10.03;;;4.50;;
34433;SDS011;34290;48.562;13.384;2023-02-26T00:47:32;8.67;;;4.67;;
34433;SDS011;34290;48.562;13.384;2023-02-26T00:50:10;8.23;;;4.60;;
34433;SDS011;34290;48.562;13.384;2023-02-26T00:52:43;8.37;;;4.50;;
34433;SDS011;34290;48.562;13.384;2023-02-26T00:55:15;8.13;;;4.87;;
34433;SDS011;34290;48.562;13.384;2023-02-26T00:57:45;7.47;;;4.17;;
34433;SDS011;34290;48.562;13.384;2023-02-26T01:00:12;6.77;;;4.67;;
34433;SDS011;34290;48.562;13.384;2023-02-26T01:02:40;7.47;;;4.53;;
34433;SDS011;34290;48.562;13.384;2023-02-26T01:05:08;9.50;;;4.67;;
34433;SDS011;34290;48.562;13.384;2023-02-26T01:07:37;9.30;;;4.60;;
34433;SDS011;34290;48.562;13.384;2023-02-26T01:10:08;8.50;;;4.70;;
34433;SDS011;34290;48.562;13.384;2023-02-26T01:12:36;8.63;;;4.90;;
34433;SDS011;34290;48.562;13.384;2023-02-26T01:15:06;8.73;;;4.80;;
34433;SDS011;34290;48.562;13.384;2023-02-26T01:17:35;9.57;;;4.80;;
34433;SDS011;34290;48.562;13.384;2023-02-26T01:20:08;8.23;;;4.13;;
34433;SDS011;34290;48.562;13.384;2023-02-26T01:22:41;8.13;;;4.00;;
34433;SDS011;34290;48.562;13.384;2023-02-26T01:25:15;8.97;;;4.70;;
34433;SDS011;34290;48.562;13.384;2023-02-26T01:27:45;8.23;;;4.03;;
34433;SDS011;34290;48.562;13.384;2023-02-26T01:32:44;8.83;;;4.57;;
34433;SDS011;34290;48.562;13.384;2023-02-26T01:35:18;7.50;;;3.73;;
34433;SDS011;34290;48.562;13.384;2023-02-26T01:37:56;7.03;;;4.27;;
34433;SDS011;34290;48.562;13.384;2023-02-26T01:40:37;7.97;;;4.40;;
34433;SDS011;34290;48.562;13.384;2023-02-26T01:43:30;7.83;;;4.00;;
34433;SDS011;34290;48.562;13.384;2023-02-26T01:46:04;8.30;;;4.13;;
34433;SDS011;34290;48.562;13.384;2023-02-26T01:48:38;6.60;;;4.17;;
34433;SDS011;34290;48.562;13.384;2023-02-26T01:51:14;8.83;;;4.57;;
34433;SDS011;34290;48.562;13.384;2023-02-26T01:53:41;7.23;;;4.10;;
34433;SDS011;34290;48.562;13.384;2023-02-26T01:56:12;7.33;;;3.90;;
34433;SDS011;34290;48.562;13.384;2023-02-26T01:58:41;7.27;;;4.10;;
34433;SDS011;34290;48.562;13.384;2023-02-26T02:01:13;5.93;;;3.73;;
34433;SDS011;34290;48.562;13.384;2023-02-26T02:03:40;6.30;;;3.60;;
34433;SDS011;34290;48.562;13.384;2023-02-26T02:06:08;6.67;;;3.73;;
34433;SDS011;34290;48.562;13.384;2023-02-26T02:08:40;6.70;;;4.00;;
34433;SDS011;34290;48.562;13.384;2023-02-26T02:11:08;6.63;;;3.67;;
34433;SDS011;34290;48.562;13.384;2023-02-26T02:13:40;8.30;;;4.00;;
34433;SDS011;34290;48.562;13.384;2023-02-26T02:16:19;6.73;;;3.37;;
34433;SDS011;34290;48.562;13.384;2023-02-26T02:18:55;7.80;;;3.63;;
34433;SDS011;34290;48.562;13.384;2023-02-26T02:21:39;6.60;;;3.80;;
34433;SDS011;34290;48.562;13.384;2023-02-26T02:24:16;5.33;;;3.23;;
34433;SDS011;34290;48.562;13.384;2023-02-26T02:26:55;7.43;;;4.00;;
34433;SDS011;34290;48.562;13.384;2023-02-26T02:29:29;6.13;;;3.70;;
34433;SDS011;34290;48.562;13.384;2023-02-26T02:32:10;6.50;;;3.73;;
34433;SDS011;34290;48.562;13.384;2023-02-26T02:34:44;5.07;;;3.50;;
34433;SDS011;34290;48.562;13.384;2023-02-26T02:37:15;5.93;;;3.40;;
34433;SDS011;34290;48.562;13.384;2023-02-26T02:39:48;5.70;;;3.80;;
34433;SDS011;34290;48.562;13.384;2023-02-26T02:42:19;6.00;;;3.60;;
34433;SDS011;34290;48.562;13.384;2023-02-26T02:44:52;7.60;;;3.77;;
34433;SDS011;34290;48.562;13.384;2023-02-26T02:47:24;7.10;;;3.83;;
34433;SDS011;34290;48.562;13.384;2023-02-26T02:49:56;7.50;;;4.17;;
34433;SDS011;34290;48.562;13.384;2023-02-26T02:52:29;7.47;;;4.03;;
34433;SDS011;34290;48.562;13.384;2023-02-26T02:55:05;5.63;;;3.37;;
34433;SDS011;34290;48.562;13.384;2023-02-26T02:57:36;6.50;;;3.50;;
34433;SDS011;34290;48.562;13.384;2023-02-26T03:00:07;6.17;;;3.60;;
34433;SDS011;34290;48.562;13.384;2023-02-26T03:02:39;5.97;;;3.73;;
34433;SDS011;34290;48.562;13.384;2023-02-26T03:05:12;7.50;;;4.00;;
34433;SDS011;34290;48.562;13.384;2023-02-26T03:07:42;7.00;;;3.77;;
34433;SDS011;34290;48.562;13.384;2023-02-26T03:10:13;6.90;;;3.87;;
34433;SDS011;34290;48.562;13.384;2023-02-26T03:12:42;6.47;;;3.90;;
34433;SDS011;34290;48.562;13.384;2023-02-26T03:15:09;6.03;;;3.80;;
34433;SDS011;34290;48.562;13.384;2023-02-26T03:17:40;6.10;;;3.70;;
34433;SDS011;34290;48.562;13.384;2023-02-26T03:20:18;5.60;;;3.37;;
34433;SDS011;34290;48.562;13.384;2023-02-26T03:22:52;6.03;;;3.47;;
34433;SDS011;34290;48.562;13.384;2023-02-26T03:25:28;7.23;;;3.87;;
34433;SDS011;34290;48.562;13.384;2023-02-26T03:28:03;7.17;;;4.20;;
34433;SDS011;34290;48.562;13.384;2023-02-26T03:30:37;8.17;;;4.13;;
34433;SDS011;34290;48.562;13.384;2023-02-26T03:33:11;7.93;;;4.10;;
34433;SDS011;34290;48.562;13.384;2023-02-26T03:35:43;7.23;;;3.90;;
34433;SDS011;34290;48.562;13.384;2023-02-26T03:38:16;6.10;;;3.80;;
34433;SDS011;34290;48.562;13.384;2023-02-26T03:40:50;6.97;;;3.80;;
34433;SDS011;34290;48.562;13.384;2023-02-26T03:43:23;7.23;;;4.07;;
34433;SDS011;34290;48.562;13.384;2023-02-26T03:45:57;6.53;;;4.03;;
34433;SDS011;34290;48.562;13.384;2023-02-26T03:48:28;5.97;;;3.77;;
34433;SDS011;34290;48.562;13.384;2023-02-26T03:51:00;7.57;;;4.07;;
34433;SDS011;34290;48.562;13.384;2023-02-26T03:53:32;6.30;;;4.03;;
34433;SDS011;34290;48.562;13.384;2023-02-26T03:56:05;7.90;;;3.73;;
34433;SDS011;34290;48.562;13.384;2023-02-26T03:58:40;7.50;;;3.97;;
34433;SDS011;34290;48.562;13.384;2023-02-26T04:01:08;6.73;;;4.20;;
34433;SDS011;34290;48.562;13.384;2023-02-26T04:03:44;5.00;;;3.70;;
34433;SDS011;34290;48.562;13.384;2023-02-26T04:06:15;7.47;;;4.17;;
34433;SDS011;34290;48.562;13.384;2023-02-26T04:08:44;6.60;;;3.90;;
34433;SDS011;34290;48.562;13.384;2023-02-26T04:11:13;7.20;;;3.93;;
34433;SDS011;34290;48.562;13.384;2023-02-26T04:13:42;6.80;;;3.90;;
34433;SDS011;34290;48.562;13.384;2023-02-26T04:16:09;8.63;;;4.10;;
34433;SDS011;34290;48.562;13.384;2023-02-26T04:18:37;8.00;;;4.27;;
34433;SDS011;34290;48.562;13.384;2023-02-26T04:21:06;6.00;;;3.80;;
34433;SDS011;34290;48.562;13.384;2023-02-26T04:23:36;5.93;;;3.63;;
34433;SDS011;34290;48.562;13.384;2023-02-26T04:26:03;6.10;;;4.10;;
34433;SDS011;34290;48.562;13.384;2023-02-26T04:28:30;5.40;;;3.83;;
34433;SDS011;34290;48.562;13.384;2023-02-26T04:30:57;6.03;;;3.70;;
34433;SDS011;34290;48.562;13.384;2023-02-26T04:33:24;7.80;;;4.23;;
34433;SDS011;34290;48.562;13.384;2023-02-26T04:35:52;8.17;;;4.30;;
34433;SDS011;34290;48.562;13.384;2023-02-26T04:38:20;7.30;;;4.07;;
34433;SDS011;34290;48.562;13.384;2023-02-26T04:40:47;7.23;;;3.97;;
34433;SDS011;34290;48.562;13.384;2023-02-26T04:43:14;5.53;;;3.40;;
34433;SDS011;34290;48.562;13.384;2023-02-26T04:45:43;8.10;;;4.17;;
34433;SDS011;34290;48.562;13.384;2023-02-26T04:48:11;7.50;;;4.00;;
34433;SDS011;34290;48.562;13.384;2023-02-26T04:50:38;7.37;;;4.03;;
34433;SDS011;34290;48.562;13.384;2023-02-26T04:53:06;7.27;;;3.90;;
34433;SDS011;34290;48.562;13.384;2023-02-26T04:55:34;5.90;;;3.80;;
34433;SDS011;34290;48.562;13.384;2023-02-26T04:58:02;7.63;;;3.90;;
34433;SDS011;34290;48.562;13.384;2023-02-26T05:00:29;5.40;;;3.60;;
34433;SDS011;34290;48.562;13.384;2023-02-26T05:02:56;5.90;;;3.80;;
34433;SDS011;34290;48.562;13.384;2023-02-26T05:05:24;6.87;;;4.23;;
34433;SDS011;34290;48.562;13.384;2023-02-26T05:07:51;7.37;;;4.10;;
34433;SDS011;34290;48.562;13.384;2023-02-26T05:10:20;5.73;;;3.50;;
34433;SDS011;34290;48.562;13.384;2023-02-26T05:12:50;5.93;;;3.40;;
34433;SDS011;34290;48.562;13.384;2023-02-26T05:15:17;6.00;;;3.43;;
34433;SDS011;34290;48.562;13.384;2023-02-26T05:17:44;6.07;;;3.60;;
34433;SDS011;34290;48.562;13.384;2023-02-26T05:20:11;7.07;;;3.73;;
34433;SDS011;34290;48.562;13.384;2023-02-26T05:22:39;8.50;;;3.80;;
34433;SDS011;34290;48.562;13.384;2023-02-26T05:25:07;8.83;;;4.00;;
34433;SDS011;34290;48.562;13.384;2023-02-26T05:27:35;5.27;;;3.63;;
34433;SDS011;34290;48.562;13.384;2023-02-26T05:30:03;6.90;;;4.00;;
34433;SDS011;34290;48.562;13.384;2023-02-26T05:32:31;5.90;;;3.70;;
34433;SDS011;34290;48.562;13.384;2023-02-26T05:35:00;7.97;;;4.20;;
34433;SDS011;34290;48.562;13.384;2023-02-26T05:37:27;5.53;;;3.50;;
34433;SDS011;34290;48.562;13.384;2023-02-26T05:39:54;7.83;;;3.67;;
34433;SDS011;34290;48.562;13.384;2023-02-26T05:42:21;6.13;;;3.67;;
34433;SDS011;34290;48.562;13.384;2023-02-26T05:44:49;7.03;;;3.63;;
34433;SDS011;34290;48.562;13.384;2023-02-26T05:47:17;6.73;;;3.97;;
34433;SDS011;34290;48.562;13.384;2023-02-26T05:49:44;6.63;;;3.90;;
34433;SDS011;34290;48.562;13.384;2023-02-26T05:52:11;8.70;;;4.80;;
34433;SDS011;34290;48.562;13.384;2023-02-26T05:54:38;6.67;;;3.53;;
34433;SDS011;34290;48.562;13.384;2023-02-26T05:57:07;6.03;;;3.73;;
34433;SDS011;34290;48.562;13.384;2023-02-26T05:59:34;6.13;;;3.63;;
34433;SDS011;34290;48.562;13.384;2023-02-26T06:02:02;6.67;;;3.87;;
34433;SDS011;34290;48.562;13.384;2023-02-26T06:04:31;19.87;;;8.03;;
34433;SDS011;34290;48.562;13.384;2023-02-26T06:06:58;8.17;;;3.93;;
34433;SDS011;34290;48.562;13.384;2023-02-26T06:09:25;8.20;;;4.27;;
34433;SDS011;34290;48.562;13.384;2023-02-26T06:11:52;9.23;;;3.87;;
34433;SDS011;34290;48.562;13.384;2023-02-26T06:14:19;6.23;;;3.93;;
34433;SDS011;34290;48.562;13.384;2023-02-26T06:16:46;7.83;;;4.40;;
34433;SDS011;34290;48.562;13.384;2023-02-26T06:19:13;6.87;;;3.93;;
34433;SDS011;34290;48.562;13.384;2023-02-26T06:21:41;6.53;;;3.93;;
34433;SDS011;34290;48.562;13.384;2023-02-26T06:24:08;7.00;;;3.70;;
34433;SDS011;34290;48.562;13.384;2023-02-26T06:26:35;6.27;;;3.60;;
34433;SDS011;34290;48.562;13.384;2023-02-26T06:29:02;7.47;;;3.87;;
34433;SDS011;34290;48.562;13.384;2023-02-26T06:31:29;6.60;;;4.03;;
34433;SDS011;34290;48.562;13.384;2023-02-26T06:33:56;6.90;;;3.80;;
34433;SDS011;34290;48.562;13.384;2023-02-26T06:36:23;7.87;;;3.83;;
34433;SDS011;34290;48.562;13.384;2023-02-26T06:38:52;6.67;;;3.77;;
34433;SDS011;34290;48.562;13.384;2023-02-26T06:41:19;6.60;;;4.10;;
34433;SDS011;34290;48.562;13.384;2023-02-26T06:43:46;8.00;;;4.00;;
34433;SDS011;34290;48.562;13.384;2023-02-26T06:46:12;5.87;;;3.70;;
34433;SDS011;34290;48.562;13.384;2023-02-26T06:48:43;4.77;;;3.50;;
34433;SDS011;34290;48.562;13.384;2023-02-26T06:51:10;6.73;;;3.70;;
34433;SDS011;34290;48.562;13.384;2023-02-26T06:53:37;8.37;;;3.87;;
34433;SDS011;34290;48.562;13.384;2023-02-26T06:56:06;7.50;;;4.37;;
34433;SDS011;34290;48.562;13.384;2023-02-26T06:58:33;7.63;;;3.80;;
34433;SDS011;34290;48.562;13.384;2023-02-26T07:01:01;10.60;;;3.90;;
34433;SDS011;34290;48.562;13.384;2023-02-26T07:03:29;5.33;;;3.77;;
34433;SDS011;34290;48.562;13.384;2023-02-26T07:05:56;5.23;;;3.63;;
34433;SDS011;34290;48.562;13.384;2023-02-26T07:08:23;7.53;;;3.60;;
34433;SDS011;34290;48.562;13.384;2023-02-26T07:10:50;5.97;;;3.90;;
34433;SDS011;34290;48.562;13.384;2023-02-26T07:13:18;5.53;;;3.60;;
34433;SDS011;34290;48.562;13.384;2023-02-26T07:15:45;4.40;;;3.07;;
34433;SDS011;34290;48.562;13.384;2023-02-26T07:18:12;7.63;;;3.50;;
34433;SDS011;34290;48.562;13.384;2023-02-26T07:20:40;5.37;;;3.30;;
34433;SDS011;34290;48.562;13.384;2023-02-26T07:23:09;5.60;;;3.50;;
34433;SDS011;34290;48.562;13.384;2023-02-26T07:25:36;5.47;;;3.10;;
34433;SDS011;34290;48.562;13.384;2023-02-26T07:28:03;4.27;;;2.97;;
34433;SDS011;34290;48.562;13.384;2023-02-26T07:30:32;5.90;;;3.20;;
34433;SDS011;34290;48.562;13.384;2023-02-26T07:32:59;5.83;;;3.60;;
34433;SDS011;34290;48.562;13.384;2023-02-26T07:35:26;6.93;;;3.43;;
34433;SDS011;34290;48.562;13.384;2023-02-26T07:37:53;5.43;;;3.03;;
34433;SDS011;34290;48.562;13.384;2023-02-26T07:40:20;7.43;;;3.67;;
34433;SDS011;34290;48.562;13.384;2023-02-26T07:42:47;5.03;;;3.40;;
34433;SDS011;34290;48.562;13.384;2023-02-26T07:45:14;4.77;;;3.07;;
34433;SDS011;34290;48.562;13.384;2023-02-26T07:47:44;4.40;;;3.10;;
34433;SDS011;34290;48.562;13.384;2023-02-26T07:50:10;3.60;;;2.50;;
34433;SDS011;34290;48.562;13.384;2023-02-26T07:52:38;2.77;;;2.40;;
34433;SDS011;34290;48.562;13.384;2023-02-26T07:55:06;3.37;;;2.63;;
34433;SDS011;34290;48.562;13.384;2023-02-26T07:57:34;3.80;;;2.23;;
34433;SDS011;34290;48.562;13.384;2023-02-26T08:00:01;3.20;;;2.50;;
34433;SDS011;34290;48.562;13.384;2023-02-26T08:02:29;3.60;;;2.60;;
34433;SDS011;34290;48.562;13.384;2023-02-26T08:04:58;3.17;;;2.30;;
34433;SDS011;34290;48.562;13.384;2023-02-26T08:07:25;2.53;;;2.20;;
34433;SDS011;34290;48.562;13.384;2023-02-26T08:09:52;3.70;;;2.30;;
34433;SDS011;34290;48.562;13.384;2023-02-26T08:12:19;3.10;;;2.30;;
34433;SDS011;34290;48.562;13.384;2023-02-26T08:14:46;2.60;;;1.87;;
34433;SDS011;34290;48.562;13.384;2023-02-26T08:17:13;3.30;;;2.10;;
34433;SDS011;34290;48.562;13.384;2023-02-26T08:19:40;2.63;;;1.87;;
34433;SDS011;34290;48.562;13.384;2023-02-26T08:22:08;2.90;;;2.00;;
34433;SDS011;34290;48.562;13.384;2023-02-26T08:24:35;3.90;;;2.30;;
34433;SDS011;34290;48.562;13.384;2023-02-26T08:27:03;2.53;;;1.87;;
34433;SDS011;34290;48.562;13.384;2023-02-26T08:29:30;2.00;;;1.77;;
34433;SDS011;34290;48.562;13.384;2023-02-26T08:31:57;2.40;;;1.80;;
34433;SDS011;34290;48.562;13.384;2023-02-26T08:34:24;2.30;;;1.47;;
34433;SDS011;34290;48.562;13.384;2023-02-26T08:36:51;2.70;;;1.70;;
34433;SDS011;34290;48.562;13.384;2023-02-26T08:39:19;2.27;;;1.60;;
34433;SDS011;34290;48.562;13.384;2023-02-26T08:41:46;2.83;;;1.40;;
34433;SDS011;34290;48.562;13.384;2023-02-26T08:44:13;1.50;;;1.40;;
34433;SDS011;34290;48.562;13.384;2023-02-26T08:46:40;3.20;;;1.33;;
34433;SDS011;34290;48.562;13.384;2023-02-26T08:49:07;1.50;;;1.40;;
34433;SDS011;34290;48.562;13.384;2023-02-26T08:51:35;2.10;;;1.70;;
34433;SDS011;34290;48.562;13.384;2023-02-26T08:54:02;1.87;;;1.57;;
34433;SDS011;34290;48.562;13.384;2023-02-26T08:56:30;3.70;;;2.47;;
34433;SDS011;34290;48.562;13.384;2023-02-26T08:58:57;2.10;;;1.57;;
34433;SDS011;34290;48.562;13.384;2023-02-26T09:01:24;2.27;;;1.60;;
34433;SDS011;34290;48.562;13.384;2023-02-26T09:03:51;1.60;;;1.47;;
34433;SDS011;34290;48.562;13.384;2023-02-26T09:06:18;2.47;;;1.50;;
34433;SDS011;34290;48.562;13.384;2023-02-26T09:08:45;1.90;;;1.58;;
34433;SDS011;34290;48.562;13.384;2023-02-26T09:11:13;2.50;;;1.52;;
34433;SDS011;34290;48.562;13.384;2023-02-26T09:13:41;2.10;;;1.50;;
34433;SDS011;34290;48.562;13.384;2023-02-26T09:16:09;2.30;;;1.42;;
34433;SDS011;34290;48.562;13.384;2023-02-26T09:18:36;2.28;;;1.60;;
34433;SDS011;34290;48.562;13.384;2023-02-26T09:21:03;2.53;;;1.80;;
34433;SDS011;34290;48.562;13.384;2023-02-26T09:23:31;1.87;;;1.67;;
34433;SDS011;34290;48.562;13.384;2023-02-26T09:25:57;1.50;;;1.40;;
34433;SDS011;34290;48.562;13.384;2023-02-26T09:28:25;2.70;;;1.73;;
34433;SDS011;34290;48.562;13.384;2023-02-26T09:30:53;3.30;;;1.70;;
34433;SDS011;34290;48.562;13.384;2023-02-26T09:33:21;3.53;;;1.90;;
34433;SDS011;34290;48.562;13.384;2023-02-26T09:35:48;2.60;;;1.80;;
34433;SDS011;34290;48.562;13.384;2023-02-26T09:38:16;2.77;;;1.90;;
34433;SDS011;34290;48.562;13.384;2023-02-26T09:40:44;2.80;;;1.70;;
34433;SDS011;34290;48.562;13.384;2023-02-26T09:43:27;2.60;;;1.80;;
34433;SDS011;34290;48.562;13.384;2023-02-26T09:46:08;2.67;;;1.60;;
34433;SDS011;34290;48.562;13.384;2023-02-26T09:48:39;2.83;;;1.70;;
34433;SDS011;34290;48.562;13.384;2023-02-26T09:51:09;1.70;;;1.60;;
34433;SDS011;34290;48.562;13.384;2023-02-26T09:53:42;4.50;;;1.80;;
34433;SDS011;34290;48.562;13.384;2023-02-26T09:56:12;2.07;;;1.80;;
34433;SDS011;34290;48.562;13.384;2023-02-26T09:58:42;2.27;;;1.70;;
34433;SDS011;34290;48.562;13.384;2023-02-26T10:01:12;2.17;;;1.60;;
34433;SDS011;34290;48.562;13.384;2023-02-26T10:03:49;2.87;;;2.00;;
34433;SDS011;34290;48.562;13.384;2023-02-26T10:06:27;1.73;;;1.63;;
34433;SDS011;34290;48.562;13.384;2023-02-26T10:09:04;3.17;;;1.50;;
34433;SDS011;34290;48.562;13.384;2023-02-26T10:11:45;2.00;;;1.60;;
34433;SDS011;34290;48.562;13.384;2023-02-26T10:14:17;2.50;;;1.87;;
34433;SDS011;34290;48.562;13.384;2023-02-26T10:16:52;2.00;;;1.80;;
34433;SDS011;34290;48.562;13.384;2023-02-26T10:19:25;1.93;;;1.80;;
34433;SDS011;34290;48.562;13.384;2023-02-26T10:21:56;2.53;;;1.87;;
34433;SDS011;34290;48.562;13.384;2023-02-26T10:24:28;2.13;;;1.73;;
34433;SDS011;34290;48.562;13.384;2023-02-26T10:27:03;7.77;;;2.00;;
34433;SDS011;34290;48.562;13.384;2023-02-26T10:29:32;7.43;;;2.10;;
34433;SDS011;34290;48.562;13.384;2023-02-26T10:32:08;2.60;;;2.10;;
34433;SDS011;34290;48.562;13.384;2023-02-26T10:34:50;1.60;;;1.50;;
34433;SDS011;34290;48.562;13.384;2023-02-26T10:37:22;1.93;;;1.50;;
34433;SDS011;34290;48.562;13.384;2023-02-26T10:39:55;3.23;;;2.10;;
34433;SDS011;34290;48.562;13.384;2023-02-26T10:42:27;2.20;;;1.70;;
34433;SDS011;34290;48.562;13.384;2023-02-26T10:45:02;2.83;;;1.80;;
34433;SDS011;34290;48.562;13.384;2023-02-26T10:47:39;2.50;;;1.60;;
34433;SDS011;34290;48.562;13.384;2023-02-26T10:50:15;3.03;;;1.63;;
34433;SDS011;34290;48.562;13.384;2023-02-26T10:52:45;2.20;;;1.80;;
34433;SDS011;34290;48.562;13.384;2023-02-26T10:55:19;1.93;;;1.50;;
34433;SDS011;34290;48.562;13.384;2023-02-26T10:58:04;1.63;;;1.50;;
34433;SDS011;34290;48.562;13.384;2023-02-26T11:00:35;2.13;;;1.90;;
34433;SDS011;34290;48.562;13.384;2023-02-26T11:03:04;2.87;;;2.10;;
34433;SDS011;34290;48.562;13.384;2023-02-26T11:05:34;6.60;;;1.93;;
34433;SDS011;34290;48.562;13.384;2023-02-26T11:08:02;4.63;;;1.80;;
34433;SDS011;34290;48.562;13.384;2023-02-26T11:10:44;4.07;;;1.80;;
34433;SDS011;34290;48.562;13.384;2023-02-26T11:13:15;2.33;;;1.87;;
34433;SDS011;34290;48.562;13.384;2023-02-26T11:15:43;2.50;;;1.80;;
34433;SDS011;34290;48.562;13.384;2023-02-26T11:18:17;3.83;;;1.70;;
34433;SDS011;34290;48.562;13.384;2023-02-26T11:20:47;1.63;;;1.50;;
34433;SDS011;34290;48.562;13.384;2023-02-26T11:23:16;2.10;;;1.50;;
34433;SDS011;34290;48.562;13.384;2023-02-26T11:25:45;1.60;;;1.30;;
34433;SDS011;34290;48.562;13.384;2023-02-26T11:28:18;1.43;;;1.33;;
34433;SDS011;34290;48.562;13.384;2023-02-26T11:30:47;1.70;;;1.60;;
34433;SDS011;34290;48.562;13.384;2023-02-26T11:33:22;2.80;;;1.37;;
34433;SDS011;34290;48.562;13.384;2023-02-26T11:35:57;1.40;;;1.30;;
34433;SDS011;34290;48.562;13.384;2023-02-26T11:38:26;1.70;;;1.50;;
34433;SDS011;34290;48.562;13.384;2023-02-26T11:40:55;1.80;;;1.50;;
34433;SDS011;34290;48.562;13.384;2023-02-26T11:43:24;1.53;;;1.40;;
34433;SDS011;34290;48.562;13.384;2023-02-26T11:45:54;4.93;;;1.80;;
34433;SDS011;34290;48.562;13.384;2023-02-26T11:48:25;1.50;;;1.40;;
34433;SDS011;34290;48.562;13.384;2023-02-26T11:50:58;1.70;;;1.60;;
34433;SDS011;34290;48.562;13.384;2023-02-26T11:53:30;6.20;;;2.23;;
34433;SDS011;34290;48.562;13.384;2023-02-26T11:56:00;2.30;;;1.60;;
34433;SDS011;34290;48.562;13.384;2023-02-26T11:58:29;2.33;;;1.60;;
34433;SDS011;34290;48.562;13.384;2023-02-26T12:01:01;2.07;;;1.80;;
34433;SDS011;34290;48.562;13.384;2023-02-26T12:03:32;2.13;;;1.40;;
34433;SDS011;34290;48.562;13.384;2023-02-26T12:06:04;2.67;;;1.40;;
34433;SDS011;34290;48.562;13.384;2023-02-26T12:08:32;2.17;;;1.40;;
34433;SDS011;34290;48.562;13.384;2023-02-26T12:11:09;1.50;;;1.40;;
34433;SDS011;34290;48.562;13.384;2023-02-26T12:14:05;1.80;;;1.57;;
34433;SDS011;34290;48.562;13.384;2023-02-26T12:16:42;2.07;;;1.73;;
34433;SDS011;34290;48.562;13.384;2023-02-26T12:19:33;2.83;;;1.40;;
34433;SDS011;34290;48.562;13.384;2023-02-26T12:22:11;1.70;;;1.60;;
34433;SDS011;34290;48.562;13.384;2023-02-26T12:27:28;2.07;;;1.57;;
34433;SDS011;34290;48.562;13.384;2023-02-26T12:30:14;1.90;;;1.47;;
34433;SDS011;34290;48.562;13.384;2023-02-26T12:32:50;1.97;;;1.80;;
34433;SDS011;34290;48.562;13.384;2023-02-26T12:35:37;2.00;;;1.53;;
34433;SDS011;34290;48.562;13.384;2023-02-26T12:40:59;2.87;;;2.00;;
34433;SDS011;34290;48.562;13.384;2023-02-26T12:43:44;1.47;;;1.37;;
34433;SDS011;34290;48.562;13.384;2023-02-26T12:46:16;1.40;;;1.30;;
34433;SDS011;34290;48.562;13.384;2023-02-26T12:49:10;1.80;;;1.60;;
34433;SDS011;34290;48.562;13.384;2023-02-26T12:51:59;1.73;;;1.53;;
34433;SDS011;34290;48.562;13.384;2023-02-26T12:54:53;2.30;;;1.60;;
34433;SDS011;34290;48.562;13.384;2023-02-26T12:57:48;2.80;;;1.77;;
34433;SDS011;34290;48.562;13.384;2023-02-26T13:00:50;1.57;;;1.47;;
34433;SDS011;34290;48.562;13.384;2023-02-26T13:09:31;1.87;;;1.70;;
34433;SDS011;34290;48.562;13.384;2023-02-26T13:12:15;3.10;;;1.60;;
34433;SDS011;34290;48.562;13.384;2023-02-26T13:14:52;2.17;;;1.97;;
34433;SDS011;34290;48.562;13.384;2023-02-26T13:17:28;2.57;;;1.80;;
34433;SDS011;34290;48.562;13.384;2023-02-26T13:20:02;1.50;;;1.40;;
34433;SDS011;34290;48.562;13.384;2023-02-26T13:22:38;2.33;;;1.53;;
34433;SDS011;34290;48.562;13.384;2023-02-26T13:25:14;4.23;;;1.50;;
34433;SDS011;34290;48.562;13.384;2023-02-26T13:27:44;1.73;;;1.40;;
34433;SDS011;34290;48.562;13.384;2023-02-26T13:30:16;1.90;;;1.30;;
34433;SDS011;34290;48.562;13.384;2023-02-26T13:32:47;1.80;;;1.50;;
34433;SDS011;34290;48.562;13.384;2023-02-26T13:35:19;1.33;;;1.27;;
34433;SDS011;34290;48.562;13.384;2023-02-26T13:37:52;2.50;;;1.50;;
34433;SDS011;34290;48.562;13.384;2023-02-26T13:40:26;2.60;;;1.57;;
34433;SDS011;34290;48.562;13.384;2023-02-26T13:43:02;1.70;;;1.27;;
34433;SDS011;34290;48.562;13.384;2023-02-26T13:45:40;1.70;;;1.60;;
34433;SDS011;34290;48.562;13.384;2023-02-26T13:48:18;3.03;;;2.27;;
34433;SDS011;34290;48.562;13.384;2023-02-26T13:50:54;3.40;;;1.40;;
34433;SDS011;34290;48.562;13.384;2023-02-26T13:56:16;1.20;;;1.20;;
34433;SDS011;34290;48.562;13.384;2023-02-26T13:58:47;2.33;;;1.40;;
34433;SDS011;34290;48.562;13.384;2023-02-26T14:01:17;1.50;;;1.40;;
34433;SDS011;34290;48.562;13.384;2023-02-26T14:03:51;1.50;;;1.40;;
34433;SDS011;34290;48.562;13.384;2023-02-26T14:06:38;1.40;;;1.30;;
34433;SDS011;34290;48.562;13.384;2023-02-26T14:12:11;3.40;;;2.20;;
34433;SDS011;34290;48.562;13.384;2023-02-26T14:17:56;1.67;;;1.50;;
34433;SDS011;34290;48.562;13.384;2023-02-26T14:20:27;2.17;;;1.50;;
34433;SDS011;34290;48.562;13.384;2023-02-26T14:23:10;1.40;;;1.30;;
34433;SDS011;34290;48.562;13.384;2023-02-26T14:26:02;1.97;;;1.60;;
34433;SDS011;34290;48.562;13.384;2023-02-26T14:28:38;3.20;;;1.70;;
34433;SDS011;34290;48.562;13.384;2023-02-26T14:31:20;3.40;;;2.23;;
34433;SDS011;34290;48.562;13.384;2023-02-26T14:34:06;1.90;;;1.43;;
34433;SDS011;34290;48.562;13.384;2023-02-26T14:36:40;2.80;;;1.80;;
34433;SDS011;34290;48.562;13.384;2023-02-26T14:39:16;2.33;;;1.33;;
34433;SDS011;34290;48.562;13.384;2023-02-26T14:41:50;6.10;;;1.77;;
34433;SDS011;34290;48.562;13.384;2023-02-26T14:44:28;1.70;;;1.40;;
34433;SDS011;34290;48.562;13.384;2023-02-26T14:46:59;1.80;;;1.60;;
34433;SDS011;34290;48.562;13.384;2023-02-26T14:49:29;2.50;;;1.90;;
34433;SDS011;34290;48.562;13.384;2023-02-26T14:52:03;1.60;;;1.50;;
34433;SDS011;34290;48.562;13.384;2023-02-26T14:54:53;1.50;;;1.40;;
34433;SDS011;34290;48.562;13.384;2023-02-26T14:57:37;2.67;;;1.87;;
34433;SDS011;34290;48.562;13.384;2023-02-26T15:00:15;2.93;;;1.40;;
34433;SDS011;34290;48.562;13.384;2023-02-26T15:03:00;1.80;;;1.47;;
34433;SDS011;34290;48.562;13.384;2023-02-26T15:05:44;2.43;;;1.60;;
34433;SDS011;34290;48.562;13.384;2023-02-26T15:08:34;2.43;;;2.03;;
34433;SDS011;34290;48.562;13.384;2023-02-26T15:11:21;2.67;;;1.70;;
34433;SDS011;34290;48.562;13.384;2023-02-26T15:14:18;5.70;;;1.70;;
34433;SDS011;34290;48.562;13.384;2023-02-26T15:17:11;3.60;;;1.50;;
34433;SDS011;34290;48.562;13.384;2023-02-26T15:19:53;1.87;;;1.60;;
34433;SDS011;34290;48.562;13.384;2023-02-26T15:22:33;3.33;;;1.80;;